Overview Statistics Trail Chart Weather Telemetry Raw packets
 

This is the latest recevied weather packets stored in our database for station/object DL2GFH-3. If no packets are shown the sender has not sent any weather packets the latest 10 day(s).

<< 26 27 28 29 30 >>
Time Temp. Humidity Pressure Rain* Wind** Luminosity Snow
1776922872 25.56° C 16% 1024.3 hPa - - - -
1776921967 25° C 17% 1024.1 hPa - - - -
1776921061 24.44° C 17% 1024.1 hPa - - - -
1776920156 24.44° C 17% 1024 hPa - - - -
1776919251 23.89° C 17% 1023.8 hPa - - - -
1776918345 24.44° C 17% 1023.6 hPa - - - -
1776917440 23.89° C 17% 1023.5 hPa - - - -
1776916534 23.33° C 18% 1023.5 hPa - - - -
1776915629 25° C 16% 1023.3 hPa - - - -
1776914723 25° C 17% 1023.3 hPa - - - -
1776913818 22.22° C 19% 1023.4 hPa - - - -
1776912913 21.67° C 20% 1023.5 hPa - - - -
1776912007 18.33° C 24% 1023.6 hPa - - - -
1776911102 15.56° C 27% 1023.7 hPa - - - -
1776910196 16.11° C 26% 1023.7 hPa - - - -
1776909291 16.67° C 25% 1023.6 hPa - - - -
1776908386 17.78° C 24% 1023.6 hPa - - - -
1776907480 18.89° C 23% 1023.4 hPa - - - -
1776906575 20° C 22% 1023.3 hPa - - - -
1776905669 20.56° C 22% 1023.2 hPa - - - -
1776904764 20.56° C 22% 1023.2 hPa - - - -
1776903858 20.56° C 22% 1023.3 hPa - - - -
1776902953 20.56° C 22% 1023.3 hPa - - - -
1776902048 20° C 22% 1023.3 hPa - - - -
1776901142 19.44° C 23% 1023.4 hPa - - - -

* Rain since midnight (hover to see other rain measurements)
** Current wind speed in m/s (hover to see current wind gust speed)